Time;durP1;ratioP1;P1;durP2;ratioP2;P2;SDS_P1;SDS_P2;PMS_P1;PMS_P2;Temp;Humidity;BMP_temperature;BMP_pressure;BME280_temperature;BME280_humidity;BME280_pressure;Samples;Min_cycle;Max_cycle;Signal;HPM_P1;HPM_P2
2021/06/11 00:01:55;;;;;;;3.00;1.40;;;21.90;54.20;;;;;;4315156;33;20147;-38
2021/06/11 00:04:22;;;;;;;1.85;1.00;;;21.90;53.80;;;;;;4327072;33;20070;-36
2021/06/11 00:06:48;;;;;;;1.10;1.00;;;21.90;53.70;;;;;;4315262;33;20153;-37
2021/06/11 00:09:17;;;;;;;1.98;1.75;;;21.70;54.80;;;;;;4327469;33;20063;-36
2021/06/11 00:11:48;;;;;;;4.93;1.42;;;21.60;54.50;;;;;;4326808;33;20067;-36
2021/06/11 00:14:16;;;;;;;2.03;1.83;;;21.60;54.90;;;;;;4327429;33;20094;-37
2021/06/11 00:16:42;;;;;;;1.33;1.23;;;21.60;54.90;;;;;;4314723;33;20078;-37
2021/06/11 00:19:09;;;;;;;2.35;1.40;;;21.50;55.20;;;;;;4340279;33;20173;-36
2021/06/11 00:21:35;;;;;;;2.50;1.42;;;21.50;55.50;;;;;;4329717;33;20168;-36
2021/06/11 00:24:02;;;;;;;2.03;1.45;;;21.40;55.70;;;;;;4317365;33;20171;-38
2021/06/11 00:26:28;;;;;;;1.27;1.17;;;21.40;55.90;;;;;;4311796;33;20299;-37
2021/06/11 00:28:55;;;;;;;1.70;1.60;;;21.30;56.00;;;;;;4312073;33;20060;-36
2021/06/11 00:31:21;;;;;;;1.60;1.20;;;21.30;56.10;;;;;;4312463;33;20079;-36
2021/06/11 00:33:47;;;;;;;3.92;2.03;;;21.30;56.20;;;;;;4307374;33;20180;-37
2021/06/11 00:36:14;;;;;;;2.78;1.45;;;21.30;56.30;;;;;;4329088;33;20168;-36
2021/06/11 00:38:40;;;;;;;2.10;1.52;;;21.30;56.30;;;;;;4341432;33;20091;-36
2021/06/11 00:41:07;;;;;;;1.98;1.80;;;21.30;56.20;;;;;;4316805;33;20687;-36
2021/06/11 00:43:33;;;;;;;4.75;1.67;;;21.40;56.10;;;;;;4328997;33;20156;-36
2021/06/11 00:46:00;;;;;;;2.75;1.25;;;21.50;56.00;;;;;;4341243;33;20095;-37
2021/06/11 00:48:26;;;;;;;1.95;1.37;;;21.50;55.80;;;;;;4329225;33;20195;-37
2021/06/11 00:50:52;;;;;;;2.72;1.85;;;21.60;56.40;;;;;;4329238;33;20086;-36
2021/06/11 00:53:19;;;;;;;2.30;1.30;;;21.60;55.50;;;;;;4329066;33;20552;-37
2021/06/11 00:55:45;;;;;;;2.72;1.83;;;21.70;55.60;;;;;;4328836;33;20176;-36
2021/06/11 00:58:13;;;;;;;2.67;2.17;;;21.70;55.30;;;;;;4328762;33;20189;-36
2021/06/11 01:00:39;;;;;;;3.65;1.58;;;21.70;55.30;;;;;;4316978;33;20150;-36
2021/06/11 01:03:07;;;;;;;3.75;2.75;;;21.70;55.20;;;;;;4345488;32;20556;-36
2021/06/11 01:05:34;;;;;;;3.33;2.28;;;21.70;55.20;;;;;;4358646;32;20565;-38
2021/06/11 01:08:00;;;;;;;1.95;1.55;;;21.80;55.20;;;;;;4370858;32;20081;-38
2021/06/11 01:10:27;;;;;;;2.12;1.92;;;21.90;55.10;;;;;;4358183;32;20102;-37
2021/06/11 01:12:53;;;;;;;5.18;2.33;;;21.90;55.00;;;;;;4358424;32;20125;-37
2021/06/11 01:15:21;;;;;;;3.33;1.62;;;21.90;55.10;;;;;;4328391;33;20161;-37
2021/06/11 01:17:52;;;;;;;3.45;1.77;;;21.90;55.20;;;;;;4354245;32;20235;-37
2021/06/11 01:20:20;;;;;;;3.58;2.67;;;21.90;55.20;;;;;;4370645;32;20606;-38
2021/06/11 01:23:10;;;;;;;4.22;2.12;;;22.00;55.20;;;;;;4369914;32;20074;-38
2021/06/11 01:26:17;;;;;;;2.42;1.95;;;22.00;55.10;;;;;;4370506;32;20501;-38
2021/06/11 01:28:43;;;;;;;3.67;1.87;;;22.10;55.20;;;;;;4370658;32;20063;-38
2021/06/11 01:31:10;;;;;;;4.72;2.53;;;22.10;54.90;;;;;;4357945;32;20071;-37
2021/06/11 01:33:36;;;;;;;8.13;2.08;;;22.20;54.90;;;;;;4370395;32;20485;-37
2021/06/11 01:36:08;;;;;;;2.22;0.90;;;22.20;54.70;;;;;;4370425;32;20081;-37
2021/06/11 01:38:40;;;;;;;2.83;1.42;;;22.20;54.60;;;;;;4358212;32;20553;-38
2021/06/11 01:41:18;;;;;;;2.78;1.70;;;22.20;54.60;;;;;;4370736;32;20088;-37
2021/06/11 01:43:46;;;;;;;8.02;2.20;;;22.20;54.60;;;;;;4358162;32;20149;-37
2021/06/11 01:46:16;;;;;;;5.80;1.83;;;22.30;54.50;;;;;;4370210;32;20065;-37
2021/06/11 01:48:43;;;;;;;3.25;1.75;;;22.40;54.40;;;;;;4361632;32;20054;-38
2021/06/11 01:51:10;;;;;;;2.00;1.70;;;22.50;54.50;;;;;;4343057;32;20070;-37
2021/06/11 01:53:37;;;;;;;7.50;2.37;;;22.60;54.30;;;;;;4328159;33;20093;-38
2021/06/11 01:56:04;;;;;;;2.33;1.83;;;22.70;54.00;;;;;;4316091;33;20164;-38
2021/06/11 01:58:31;;;;;;;3.10;1.77;;;22.90;53.50;;;;;;4328487;33;20075;-37
2021/06/11 02:00:58;;;;;;;4.15;2.10;;;23.00;52.60;;;;;;4328050;33;20078;-37
2021/06/11 02:03:25;;;;;;;2.95;1.73;;;23.10;52.40;;;;;;4330588;32;20117;-37
2021/06/11 02:05:53;;;;;;;4.37;1.65;;;23.30;52.40;;;;;;4330727;32;20670;-37
2021/06/11 02:08:19;;;;;;;5.62;1.90;;;23.50;51.90;;;;;;4342631;32;20158;-36
2021/06/11 02:10:46;;;;;;;1.48;1.30;;;23.80;51.20;;;;;;4342809;32;20720;-36
2021/06/11 02:13:13;;;;;;;6.85;1.65;;;24.00;50.80;;;;;;4343246;32;20062;-37
2021/06/11 02:15:40;;;;;;;2.08;1.35;;;24.20;50.40;;;;;;4331031;32;20070;-37
2021/06/11 02:18:07;;;;;;;4.12;1.30;;;24.40;49.90;;;;;;4310558;33;20117;-36
2021/06/11 02:20:33;;;;;;;4.10;1.45;;;24.60;49.40;;;;;;4298869;33;20079;-37
2021/06/11 02:23:00;;;;;;;3.55;1.25;;;24.80;48.90;;;;;;4311011;33;20113;-37
2021/06/11 02:25:27;;;;;;;2.10;1.55;;;24.80;48.60;;;;;;4310778;33;20530;-37
2021/06/11 02:27:55;;;;;;;1.95;1.40;;;24.90;48.20;;;;;;4310909;33;20597;-37
2021/06/11 02:30:22;;;;;;;2.97;1.33;;;25.00;48.10;;;;;;4317228;33;20066;-37
2021/06/11 02:32:49;;;;;;;5.28;1.62;;;25.10;48.10;;;;;;4340470;33;20530;-38
2021/06/11 02:35:23;;;;;;;4.80;1.83;;;25.20;48.00;;;;;;4311774;33;20078;-38
2021/06/11 02:37:50;;;;;;;;;;;25.20;47.70;;;;;;4302311;33;20173;-38
2021/06/11 02:40:16;;;;;;;8.38;4.50;;;25.20;47.50;;;;;;4313421;33;19975;-38
2021/06/11 02:42:49;;;;;;;13.05;5.07;;;25.20;47.00;;;;;;4313239;33;20071;-38
2021/06/11 02:45:24;;;;;;;10.23;4.40;;;25.20;47.30;;;;;;4313360;33;20172;-38
2021/06/11 02:48:05;;;;;;;8.15;4.05;;;25.20;47.40;;;;;;4295993;33;20147;-38
2021/06/11 02:50:38;;;;;;;9.98;3.78;;;25.10;47.50;;;;;;4328104;33;20071;-37
2021/06/11 02:53:06;;;;;;;10.67;4.50;;;25.10;47.60;;;;;;4328490;33;20523;-37
2021/06/11 02:55:34;;;;;;;9.93;3.47;;;25.30;47.60;;;;;;4328175;33;20086;-36
2021/06/11 02:58:05;;;;;;;6.25;2.62;;;25.40;47.30;;;;;;4308739;33;20083;-37
2021/06/11 03:00:31;;;;;;;7.05;2.65;;;25.70;47.50;;;;;;4313702;33;20071;-37
2021/06/11 03:03:29;;;;;;;8.88;2.72;;;25.90;46.60;;;;;;4313448;33;20060;-37
2021/06/11 03:05:58;;;;;;;5.72;2.25;;;26.10;45.80;;;;;;4339054;32;20150;-37
2021/06/11 03:08:28;;;;;;;9.38;2.80;;;26.30;45.80;;;;;;4345319;32;20071;-38
2021/06/11 03:11:04;;;;;;;7.53;2.47;;;26.40;45.50;;;;;;4321243;32;20505;-38
2021/06/11 03:13:31;;;;;;;7.05;3.75;;;26.70;45.30;;;;;;4333301;32;20150;-36
2021/06/11 03:15:58;;;;;;;7.70;2.87;;;26.80;44.70;;;;;;4333376;32;20054;-37
2021/06/11 03:18:32;;;;;;;4.68;2.20;;;26.90;44.20;;;;;;4333257;32;20138;-37
2021/06/11 03:21:20;;;;;;;8.35;2.70;;;26.90;44.00;;;;;;4345165;32;20082;-39
2021/06/11 03:23:50;;;;;;;5.37;2.72;;;27.00;44.10;;;;;;4357665;32;20062;-37
2021/06/11 03:26:22;;;;;;;7.40;2.60;;;26.90;43.80;;;;;;4345270;32;20144;-37
2021/06/11 03:28:54;;;;;;;3.58;2.28;;;26.90;43.70;;;;;;4344072;32;20174;-37
2021/06/11 03:31:30;;;;;;;7.68;4.87;;;26.80;43.80;;;;;;4358255;32;20097;-38
2021/06/11 03:34:01;;;;;;;5.55;2.00;;;26.90;44.20;;;;;;4357935;32;20490;-37
2021/06/11 03:36:36;;;;;;;4.50;2.65;;;26.90;43.80;;;;;;4358672;32;20092;-37
2021/06/11 03:39:06;;;;;;;6.40;3.17;;;27.00;43.60;;;;;;4358204;32;20053;-37
2021/06/11 03:41:34;;;;;;;6.20;2.33;;;27.10;43.50;;;;;;4359379;32;20160;-37
2021/06/11 03:44:02;;;;;;;5.95;3.10;;;27.30;43.50;;;;;;4357846;32;20137;-37
2021/06/11 03:46:31;;;;;;;7.47;2.47;;;27.40;43.60;;;;;;4358009;32;20082;-38
2021/06/11 03:48:58;;;;;;;6.40;2.25;;;27.70;43.30;;;;;;4380685;32;20186;-37
2021/06/11 03:51:26;;;;;;;5.78;3.05;;;28.00;42.20;;;;;;4389484;32;20109;-38
2021/06/11 03:53:54;;;;;;;6.37;2.22;;;28.10;41.80;;;;;;4375699;32;20096;-37
2021/06/11 03:56:20;;;;;;;8.95;2.85;;;28.20;41.80;;;;;;4388104;32;20083;-37
2021/06/11 03:58:47;;;;;;;4.78;3.30;;;28.20;41.80;;;;;;4344428;32;20112;-37
2021/06/11 04:01:33;;;;;;;3.50;3.20;;;28.30;41.60;;;;;;4344328;32;20071;-38
2021/06/11 04:04:00;;;;;;;7.60;4.28;;;28.30;41.40;;;;;;4356481;32;20113;-38
2021/06/11 04:06:45;;;;;;;7.20;4.85;;;28.40;41.10;;;;;;4344520;32;20166;-38
2021/06/11 04:09:20;;;;;;;;;;;28.30;41.40;;;;;;4346250;32;20081;-36
2021/06/11 04:11:49;;;;;;;;;;;28.40;41.70;;;;;;4344785;32;20047;-37
2021/06/11 04:14:23;;;;;;;10.57;4.53;;;28.50;41.50;;;;;;4344447;32;19968;-38
2021/06/11 04:16:50;;;;;;;8.43;5.12;;;28.50;41.00;;;;;;4332752;32;20094;-38
2021/06/11 04:19:26;;;;;;;8.35;4.50;;;28.50;41.20;;;;;;4344349;32;20074;-38
2021/06/11 04:21:54;;;;;;;7.97;3.58;;;28.60;41.20;;;;;;4356569;32;20569;-38
2021/06/11 04:24:29;;;;;;;5.47;3.58;;;28.50;40.80;;;;;;4343976;32;20093;-38
2021/06/11 04:26:57;;;;;;;4.80;3.70;;;28.50;40.70;;;;;;4341316;33;20052;-37
2021/06/11 04:29:24;;;;;;;6.62;4.07;;;28.40;40.90;;;;;;4339366;32;20090;-38
2021/06/11 04:31:54;;;;;;;11.20;4.30;;;28.50;41.30;;;;;;4371073;32;20078;-36
2021/06/11 04:34:21;;;;;;;3.62;3.22;;;28.50;41.00;;;;;;4371335;32;20543;-36
2021/06/11 04:36:48;;;;;;;4.65;3.05;;;28.50;40.80;;;;;;4371101;32;20051;-36
2021/06/11 04:39:14;;;;;;;4.97;4.22;;;28.50;40.90;;;;;;4371230;32;20072;-36
2021/06/11 04:41:41;;;;;;;5.75;3.05;;;28.40;40.90;;;;;;4371483;32;20065;-36
2021/06/11 04:44:08;;;;;;;6.47;2.70;;;28.50;41.20;;;;;;4358328;32;20505;-36
2021/06/11 04:46:35;;;;;;;3.92;2.50;;;28.60;40.70;;;;;;4370861;32;20473;-37
2021/06/11 04:49:01;;;;;;;6.60;3.58;;;28.90;41.10;;;;;;4360094;32;20093;-36
2021/06/11 04:51:28;;;;;;;6.15;3.05;;;29.10;40.70;;;;;;4356341;32;20082;-37
2021/06/11 04:53:54;;;;;;;5.28;3.95;;;29.10;39.90;;;;;;4343723;32;20098;-37
2021/06/11 04:56:21;;;;;;;10.23;4.57;;;29.10;39.90;;;;;;4355852;32;20618;-37
2021/06/11 04:58:49;;;;;;;4.15;2.80;;;29.10;39.80;;;;;;4342846;32;20073;-36
2021/06/11 05:01:15;;;;;;;7.15;4.43;;;29.20;40.20;;;;;;4355610;32;20098;-37
2021/06/11 05:03:42;;;;;;;6.60;3.05;;;29.20;39.80;;;;;;4363973;32;20245;-37
2021/06/11 05:06:08;;;;;;;9.75;3.35;;;29.30;40.10;;;;;;4388145;32;20066;-37
2021/06/11 05:08:35;;;;;;;3.70;1.80;;;29.20;39.60;;;;;;4388161;32;20481;-38
2021/06/11 05:11:02;;;;;;;9.60;3.58;;;29.10;39.60;;;;;;4388490;32;20064;-37
2021/06/11 05:13:29;;;;;;;5.80;4.50;;;29.10;39.60;;;;;;4388476;32;20061;-37
2021/06/11 05:15:56;;;;;;;13.20;4.28;;;29.10;40.00;;;;;;4370796;32;20077;-37
2021/06/11 05:18:26;;;;;;;8.73;5.57;;;29.20;40.20;;;;;;4370337;32;20081;-37
2021/06/11 05:20:53;;;;;;;5.85;3.50;;;29.30;40.40;;;;;;4370420;32;20526;-38
2021/06/11 05:23:20;;;;;;;7.00;3.12;;;29.50;39.90;;;;;;4370219;32;20062;-37
2021/06/11 05:25:47;;;;;;;4.60;4.20;;;29.50;39.50;;;;;;4370073;32;20141;-37
2021/06/11 05:28:15;;;;;;;12.30;5.18;;;29.60;39.60;;;;;;4370213;32;20561;-37
2021/06/11 05:30:41;;;;;;;10.07;3.50;;;29.80;39.70;;;;;;4370265;32;20674;-37
2021/06/11 05:33:08;;;;;;;1.05;0.47;;;30.00;39.60;;;;;;4370484;32;20142;-37
2021/06/11 05:35:35;;;;;;;4.45;3.00;;;30.10;38.50;;;;;;4371529;32;20104;-38
2021/06/11 05:38:05;;;;;;;5.00;3.25;;;30.10;38.50;;;;;;4371275;32;20074;-38
2021/06/11 05:40:33;;;;;;;4.50;3.20;;;30.30;39.20;;;;;;4371289;32;20107;-39
2021/06/11 05:42:59;;;;;;;5.25;3.10;;;30.40;39.10;;;;;;4370746;32;20077;-38
2021/06/11 05:45:30;;;;;;;5.53;3.42;;;30.50;38.50;;;;;;4370272;32;20712;-37
2021/06/11 05:47:58;;;;;;;14.87;3.72;;;30.70;38.60;;;;;;4379332;32;20153;-39
2021/06/11 05:50:25;;;;;;;13.98;3.15;;;30.70;38.40;;;;;;4372627;32;20078;-37
2021/06/11 05:52:52;;;;;;;3.25;2.35;;;31.00;38.70;;;;;;4372698;32;20465;-38
2021/06/11 05:55:19;;;;;;;9.25;3.65;;;31.20;37.90;;;;;;4372569;32;20101;-39
2021/06/11 05:57:45;;;;;;;5.53;3.60;;;31.20;36.80;;;;;;4371299;32;20147;-38
2021/06/11 06:00:12;;;;;;;9.18;3.30;;;31.20;37.10;;;;;;4370879;32;20062;-37
2021/06/11 06:02:39;;;;;;;9.00;3.30;;;31.10;37.90;;;;;;4371115;32;20077;-38
2021/06/11 06:05:08;;;;;;;10.63;4.20;;;31.00;39.00;;;;;;4383678;32;20081;-38
2021/06/11 06:07:38;;;;;;;7.37;4.05;;;30.80;39.70;;;;;;4386489;32;20062;-38
2021/06/11 06:10:06;;;;;;;5.68;3.47;;;30.70;40.30;;;;;;4375317;32;20096;-38
2021/06/11 06:12:32;;;;;;;4.40;3.20;;;30.80;40.20;;;;;;4389433;32;20494;-38
2021/06/11 06:14:59;;;;;;;8.35;3.55;;;31.10;39.90;;;;;;4390813;32;20543;-37
2021/06/11 06:17:26;;;;;;;4.95;3.67;;;31.50;39.20;;;;;;4389371;32;20093;-38
2021/06/11 06:19:53;;;;;;;8.57;3.62;;;31.90;38.80;;;;;;4390657;32;20075;-38
2021/06/11 06:22:19;;;;;;;6.78;3.25;;;32.20;38.50;;;;;;4390368;32;20506;-38
2021/06/11 06:24:46;;;;;;;6.70;3.70;;;32.40;38.00;;;;;;4389291;32;20061;-37
2021/06/11 06:27:12;;;;;;;13.35;3.25;;;32.50;37.80;;;;;;4390849;32;20062;-38
2021/06/11 06:29:39;;;;;;;9.07;3.53;;;32.50;37.90;;;;;;4390893;32;20058;-38
2021/06/11 06:32:06;;;;;;;4.53;3.30;;;32.70;37.60;;;;;;4390231;32;20497;-38
2021/06/11 06:34:32;;;;;;;5.45;3.20;;;32.90;37.30;;;;;;4390159;32;20074;-37
2021/06/11 06:36:58;;;;;;;5.80;3.62;;;33.30;36.90;;;;;;4390245;32;20133;-39
2021/06/11 06:39:26;;;;;;;5.22;3.45;;;33.30;35.20;;;;;;4390722;32;20070;-38
2021/06/11 06:41:53;;;;;;;3.60;3.20;;;33.20;34.70;;;;;;4389106;32;20505;-37
2021/06/11 06:44:19;;;;;;;4.47;4.05;;;33.10;34.80;;;;;;4389964;32;20450;-37
2021/06/11 06:46:46;;;;;;;4.20;3.85;;;33.10;35.00;;;;;;4389969;32;20135;-37
2021/06/11 06:49:12;;;;;;;7.05;3.90;;;33.00;34.70;;;;;;4377943;32;20069;-38
2021/06/11 06:51:39;;;;;;;6.95;3.95;;;33.10;35.00;;;;;;4373721;32;20070;-38
2021/06/11 06:54:05;;;;;;;5.12;3.83;;;33.40;36.40;;;;;;4374801;32;20561;-39
2021/06/11 06:56:32;;;;;;;6.65;3.92;;;33.60;36.50;;;;;;4375333;32;20055;-39
2021/06/11 06:58:59;;;;;;;4.25;3.85;;;33.80;36.00;;;;;;4375149;32;20207;-38
2021/06/11 07:01:26;;;;;;;5.60;4.30;;;33.90;35.80;;;;;;4374867;32;20061;-37
2021/06/11 07:04:01;;;;;;;5.30;3.90;;;34.00;35.60;;;;;;4377942;32;20105;-37
2021/06/11 07:06:28;;;;;;;6.87;4.12;;;34.10;35.50;;;;;;4357411;32;20090;-37
2021/06/11 07:08:54;;;;;;;6.70;4.07;;;34.10;35.20;;;;;;4344938;32;20086;-37
2021/06/11 07:11:21;;;;;;;8.05;4.62;;;34.20;35.20;;;;;;4345276;32;20081;-38
2021/06/11 07:13:48;;;;;;;5.62;4.47;;;34.40;35.30;;;;;;4357117;32;20090;-38
2021/06/11 07:16:15;;;;;;;7.95;4.40;;;34.60;35.10;;;;;;4342252;33;20079;-37
2021/06/11 07:18:41;;;;;;;7.47;4.32;;;34.80;35.00;;;;;;4342719;33;20090;-38
2021/06/11 07:21:08;;;;;;;9.68;5.18;;;34.90;34.60;;;;;;4341802;32;20059;-39
2021/06/11 07:23:35;;;;;;;8.32;5.40;;;35.10;34.70;;;;;;4329976;33;20179;-39
2021/06/11 07:26:05;;;;;;;15.85;6.20;;;35.00;34.40;;;;;;4342295;33;20095;-37
2021/06/11 07:28:36;;;;;;;7.78;5.70;;;34.90;34.40;;;;;;4330931;33;20070;-37
2021/06/11 07:31:04;;;;;;;5.93;5.12;;;34.80;34.30;;;;;;4300887;33;20055;-37
2021/06/11 07:33:31;;;;;;;7.35;6.57;;;34.60;34.60;;;;;;4312937;33;20071;-38
2021/06/11 07:35:58;;;;;;;10.18;6.10;;;34.30;34.90;;;;;;4312838;33;20591;-38
2021/06/11 07:38:25;;;;;;;6.75;6.15;;;34.10;35.70;;;;;;4312650;33;20166;-38
2021/06/11 07:40:53;;;;;;;6.57;5.68;;;34.10;35.80;;;;;;4300370;33;20071;-38
2021/06/11 07:43:23;;;;;;;9.38;6.22;;;34.10;35.90;;;;;;4308551;33;20081;-38
2021/06/11 07:45:50;;;;;;;8.68;6.37;;;34.10;36.20;;;;;;4342008;33;20074;-38
2021/06/11 07:48:17;;;;;;;5.93;5.07;;;34.30;35.90;;;;;;4369301;32;20098;-38
2021/06/11 07:50:43;;;;;;;8.23;6.00;;;34.50;35.40;;;;;;4344417;32;20533;-38
2021/06/11 07:53:10;;;;;;;7.60;5.43;;;34.50;35.00;;;;;;4356519;32;20466;-38
2021/06/11 07:55:37;;;;;;;6.25;5.68;;;34.20;34.90;;;;;;4344156;32;20115;-38
2021/06/11 07:58:03;;;;;;;16.70;8.77;;;33.90;35.10;;;;;;4344571;32;20546;-38
2021/06/11 08:00:30;;;;;;;13.00;6.68;;;33.80;36.40;;;;;;4356761;32;20115;-38
2021/06/11 08:02:57;;;;;;;6.85;6.20;;;33.70;36.10;;;;;;4356766;32;20476;-39
2021/06/11 08:05:24;;;;;;;7.00;6.10;;;33.90;36.20;;;;;;4344268;32;20073;-38
2021/06/11 08:07:50;;;;;;;9.80;4.55;;;34.10;35.70;;;;;;4356431;32;20155;-38
2021/06/11 08:10:17;;;;;;;8.43;6.03;;;34.20;35.50;;;;;;4356509;32;20086;-38
2021/06/11 08:12:44;;;;;;;7.53;4.45;;;34.20;35.60;;;;;;4356700;32;20447;-39
2021/06/11 08:15:11;;;;;;;4.53;4.10;;;34.20;34.20;;;;;;4356597;32;20067;-39
2021/06/11 08:17:38;;;;;;;6.12;2.97;;;34.20;34.00;;;;;;4344516;32;20147;-39
2021/06/11 08:20:07;;;;;;;4.15;2.22;;;34.30;33.70;;;;;;4344006;32;20141;-39
2021/06/11 08:22:33;;;;;;;5.32;2.65;;;34.40;33.00;;;;;;4396569;32;20058;-38
2021/06/11 08:25:00;;;;;;;4.12;3.30;;;34.30;32.80;;;;;;4403541;32;20085;-38
2021/06/11 08:27:26;;;;;;;3.85;2.87;;;34.40;33.10;;;;;;4403669;32;20081;-39
2021/06/11 08:29:53;;;;;;;9.32;5.35;;;34.70;33.10;;;;;;4403715;32;20521;-38
2021/06/11 08:32:19;;;;;;;26.17;6.37;;;34.90;33.90;;;;;;4389296;32;20072;-39
2021/06/11 08:34:45;;;;;;;5.30;2.17;;;35.30;33.70;;;;;;4389788;32;20676;-39
2021/06/11 08:37:12;;;;;;;4.60;1.98;;;35.50;32.30;;;;;;4403550;32;20147;-39
2021/06/11 08:39:38;;;;;;;2.60;1.35;;;35.50;32.00;;;;;;4404187;32;20103;-38
2021/06/11 08:42:08;;;;;;;3.60;1.20;;;35.50;31.90;;;;;;4403690;32;20533;-38
2021/06/11 08:44:35;;;;;;;3.92;1.75;;;35.40;31.80;;;;;;4389629;32;20469;-38
2021/06/11 08:47:02;;;;;;;2.67;1.75;;;35.30;32.00;;;;;;4403785;32;20069;-38
2021/06/11 08:49:28;;;;;;;6.03;1.27;;;35.20;32.50;;;;;;4389420;32;20067;-39
2021/06/11 08:51:55;;;;;;;1.75;1.17;;;35.00;32.10;;;;;;4403971;32;20083;-39
2021/06/11 08:54:22;;;;;;;6.00;1.60;;;34.90;32.50;;;;;;4389578;32;20054;-38
2021/06/11 08:56:50;;;;;;;2.90;2.00;;;34.70;32.40;;;;;;4403535;32;20054;-39
2021/06/11 08:59:16;;;;;;;2.72;0.90;;;34.50;33.20;;;;;;4377368;32;20513;-39
2021/06/11 09:01:44;;;;;;;2.87;1.35;;;34.30;32.90;;;;;;4402826;32;20551;-39
2021/06/11 09:04:10;;;;;;;4.62;1.83;;;34.10;33.00;;;;;;4386009;32;20120;-39
2021/06/11 09:06:37;;;;;;;7.47;1.50;;;34.10;33.10;;;;;;4357970;32;20078;-38
2021/06/11 09:09:05;;;;;;;1.67;1.52;;;34.10;33.70;;;;;;4358135;32;20601;-38
2021/06/11 09:11:34;;;;;;;2.90;1.48;;;34.10;33.50;;;;;;4370955;32;20172;-39
2021/06/11 09:14:08;;;;;;;4.03;1.08;;;34.20;33.60;;;;;;4370767;32;20094;-39
2021/06/11 09:16:48;;;;;;;1.95;1.20;;;34.10;33.50;;;;;;4358196;32;20156;-39
2021/06/11 09:19:19;;;;;;;5.62;1.80;;;34.10;33.90;;;;;;4370490;32;20540;-38
2021/06/11 09:21:53;;;;;;;2.85;1.40;;;34.30;34.00;;;;;;4370240;32;20073;-40
2021/06/11 09:24:27;;;;;;;7.95;6.10;;;34.50;34.00;;;;;;4370885;32;20066;-39
2021/06/11 09:27:01;;;;;;;4.85;1.33;;;34.80;33.90;;;;;;4357609;32;20097;-39
2021/06/11 09:29:37;;;;;;;6.45;1.48;;;34.80;32.80;;;;;;4369659;32;20496;-40
2021/06/11 09:32:25;;;;;;;3.42;1.20;;;34.70;32.60;;;;;;4358527;32;20511;-39
2021/06/11 09:35:05;;;;;;;5.62;1.80;;;34.60;33.00;;;;;;4357628;32;20502;-38
2021/06/11 09:37:36;;;;;;;4.75;2.00;;;34.60;32.80;;;;;;4378807;32;20066;-40
2021/06/11 09:40:10;;;;;;;1.48;1.23;;;34.60;33.00;;;;;;4388146;32;20069;-38
2021/06/11 09:42:45;;;;;;;3.22;1.83;;;34.60;33.70;;;;;;4387687;32;20085;-39
2021/06/11 09:45:13;;;;;;;5.53;2.08;;;34.60;34.20;;;;;;4387386;32;20050;-40
2021/06/11 09:47:48;;;;;;;2.95;2.10;;;34.60;33.90;;;;;;4387994;32;20073;-40
2021/06/11 09:50:22;;;;;;;2.15;1.25;;;34.60;33.60;;;;;;4387524;32;20050;-39
2021/06/11 09:53:05;;;;;;;3.47;1.10;;;34.50;33.80;;;;;;4386008;32;20060;-40
2021/06/11 09:55:46;;;;;;;1.37;0.62;;;34.10;33.50;;;;;;4387910;32;20070;-37
2021/06/11 09:58:20;;;;;;;2.80;0.50;;;33.50;32.50;;;;;;4385799;32;20225;-40
2021/06/11 10:00:57;;;;;;;1.37;0.80;;;32.80;31.40;;;;;;4355067;32;20068;-39
2021/06/11 10:03:34;;;;;;;1.45;0.95;;;32.20;31.60;;;;;;4343047;32;20161;-38
2021/06/11 10:06:04;;;;;;;0.60;0.50;;;31.60;31.80;;;;;;4355122;32;20570;-39
2021/06/11 10:08:31;;;;;;;1.10;0.60;;;31.20;31.50;;;;;;4354849;32;20158;-39
2021/06/11 10:11:00;;;;;;;4.37;0.30;;;30.90;31.30;;;;;;4355155;32;20095;-39
2021/06/11 10:13:26;;;;;;;1.00;0.40;;;30.60;31.20;;;;;;4343148;32;20157;-38
2021/06/11 10:15:55;;;;;;;3.58;0.60;;;30.40;31.60;;;;;;4355651;32;20232;-39
2021/06/11 10:18:22;;;;;;;2.05;0.40;;;30.20;32.00;;;;;;4355099;32;20079;-38
2021/06/11 10:20:48;;;;;;;1.30;0.43;;;30.20;32.30;;;;;;4354937;32;20183;-39
2021/06/11 10:23:20;;;;;;;2.37;0.50;;;30.20;32.40;;;;;;4354650;32;20282;-37
2021/06/11 10:25:51;;;;;;;1.77;0.70;;;30.40;32.90;;;;;;4342691;32;20581;-41
2021/06/11 10:28:26;;;;;;;1.20;1.10;;;30.50;32.70;;;;;;4355062;32;20069;-38
2021/06/11 10:31:05;;;;;;;3.00;1.95;;;30.70;33.60;;;;;;4347339;32;20563;-39
2021/06/11 10:33:44;;;;;;;3.08;1.25;;;30.90;34.00;;;;;;4387188;32;20582;-39
2021/06/11 10:36:30;;;;;;;2.10;1.20;;;31.20;34.00;;;;;;4387209;32;20043;-38
2021/06/11 10:39:22;;;;;;;0.90;0.75;;;31.30;34.10;;;;;;4354455;32;20224;-39
2021/06/11 10:42:09;;;;;;;2.15;0.52;;;31.50;34.70;;;;;;4344794;32;20102;-39
2021/06/11 10:44:49;;;;;;;1.20;0.65;;;31.60;34.80;;;;;;4339692;32;20144;-39
2021/06/11 10:47:16;;;;;;;6.07;0.77;;;31.50;34.60;;;;;;4340165;32;20116;-39
2021/06/11 10:50:08;;;;;;;3.30;1.35;;;31.40;35.10;;;;;;4325469;33;20145;-39
2021/06/11 10:52:44;;;;;;;0.85;0.82;;;31.50;35.70;;;;;;4320692;33;20078;-39
2021/06/11 10:55:19;;;;;;;0.90;0.50;;;31.60;35.50;;;;;;4325484;33;20062;-38
2021/06/11 10:58:03;;;;;;;2.00;0.80;;;31.60;35.60;;;;;;4328117;33;20526;-39
2021/06/11 11:00:40;;;;;;;1.67;1.13;;;31.60;36.00;;;;;;4327595;33;20253;-38
2021/06/11 11:03:09;;;;;;;0.60;0.60;;;31.60;35.80;;;;;;4327701;33;20666;-39
2021/06/11 11:05:41;;;;;;;1.37;0.95;;;31.60;35.60;;;;;;4327450;33;20063;-39
2021/06/11 11:08:11;;;;;;;1.20;1.02;;;31.70;35.40;;;;;;4327977;33;20173;-39
2021/06/11 11:10:54;;;;;;;0.82;0.57;;;31.80;36.30;;;;;;4324184;33;20071;-40
2021/06/11 11:13:28;;;;;;;3.45;1.20;;;31.80;36.00;;;;;;4327898;33;20063;-39
2021/06/11 11:15:57;;;;;;;3.40;1.10;;;31.80;35.80;;;;;;4327735;33;20077;-38
2021/06/11 11:18:32;;;;;;;1.02;0.65;;;31.90;36.00;;;;;;4327869;33;20539;-39
2021/06/11 11:20:58;;;;;;;1.35;0.95;;;32.00;36.00;;;;;;4328364;33;20188;-38
2021/06/11 11:23:27;;;;;;;1.35;0.60;;;32.00;35.30;;;;;;4342694;33;20240;-38
2021/06/11 11:25:53;;;;;;;1.17;0.70;;;32.10;35.60;;;;;;4342438;33;20068;-39
2021/06/11 11:28:20;;;;;;;1.45;0.60;;;32.00;35.80;;;;;;4342056;33;20109;-39
2021/06/11 11:30:48;;;;;;;1.12;0.60;;;32.10;36.10;;;;;;4329893;33;20070;-40
2021/06/11 11:33:16;;;;;;;8.68;1.20;;;32.30;36.40;;;;;;4342625;33;20063;-40
2021/06/11 11:35:46;;;;;;;0.93;0.60;;;32.40;36.30;;;;;;4342048;33;20116;-39
2021/06/11 11:38:13;;;;;;;1.10;0.77;;;32.50;36.20;;;;;;4342778;33;20086;-41
2021/06/11 11:40:43;;;;;;;1.08;0.70;;;32.50;36.20;;;;;;4344325;32;20071;-40
2021/06/11 11:43:10;;;;;;;3.47;0.95;;;32.50;36.00;;;;;;4359605;32;20061;-38
2021/06/11 11:45:38;;;;;;;2.87;0.73;;;32.60;35.90;;;;;;4359606;32;20063;-38
2021/06/11 11:48:06;;;;;;;1.00;0.52;;;32.50;36.00;;;;;;4364197;32;20085;-38
2021/06/11 11:50:35;;;;;;;0.55;0.40;;;32.40;36.50;;;;;;4374226;32;20517;-39
2021/06/11 11:53:01;;;;;;;2.65;0.57;;;32.40;36.50;;;;;;4372867;32;20578;-39
2021/06/11 11:55:28;;;;;;;6.80;1.00;;;32.40;34.30;;;;;;4374765;32;20090;-38
2021/06/11 11:57:54;;;;;;;0.80;0.30;;;32.30;33.30;;;;;;4373769;32;20073;-39
2021/06/11 12:00:21;;;;;;;1.00;0.50;;;32.10;31.80;;;;;;4373922;32;20070;-39
2021/06/11 12:02:48;;;;;;;1.23;0.57;;;32.20;31.50;;;;;;4374160;32;20062;-39
2021/06/11 12:05:16;;;;;;;3.33;2.05;;;32.20;31.30;;;;;;4397952;32;20065;-37
2021/06/11 12:07:43;;;;;;;2.53;0.60;;;32.30;32.40;;;;;;4390059;32;20081;-39
2021/06/11 12:10:10;;;;;;;1.10;0.60;;;32.40;31.50;;;;;;4404438;32;20069;-38
2021/06/11 12:12:37;;;;;;;1.45;0.80;;;32.50;31.50;;;;;;4404559;32;20082;-38
2021/06/11 12:15:04;;;;;;;1.20;0.80;;;32.60;31.70;;;;;;4404094;32;20064;-40
2021/06/11 12:17:31;;;;;;;3.20;1.70;;;32.70;31.60;;;;;;4404462;32;20071;-38
2021/06/11 12:19:57;;;;;;;4.60;2.35;;;32.80;31.80;;;;;;4390216;32;20096;-43
2021/06/11 12:22:24;;;;;;;2.20;1.98;;;32.90;32.20;;;;;;4404089;32;20064;-40
2021/06/11 12:24:51;;;;;;;4.07;1.87;;;32.90;32.50;;;;;;4404213;32;20145;-39
2021/06/11 12:27:17;;;;;;;3.47;1.60;;;33.00;32.90;;;;;;4390090;32;20140;-40
2021/06/11 12:29:44;;;;;;;1.17;0.77;;;33.00;33.60;;;;;;4400878;32;20165;-40
2021/06/11 12:32:10;;;;;;;1.87;0.90;;;33.10;34.00;;;;;;4401051;32;20061;-40
2021/06/11 12:34:37;;;;;;;2.47;1.50;;;33.10;34.20;;;;;;4389168;32;20069;-38
2021/06/11 12:37:04;;;;;;;2.33;1.95;;;33.10;34.40;;;;;;4401326;32;20538;-37
2021/06/11 12:39:31;;;;;;;4.55;1.35;;;33.10;34.50;;;;;;4401905;32;20081;-39
2021/06/11 12:42:01;;;;;;;4.20;1.35;;;33.10;34.90;;;;;;4371071;32;20085;-39
2021/06/11 12:44:28;;;;;;;5.70;1.40;;;33.10;35.40;;;;;;4347401;32;20074;-39
2021/06/11 12:46:55;;;;;;;0.73;0.62;;;33.00;35.10;;;;;;4370597;32;20100;-38
2021/06/11 12:49:24;;;;;;;4.35;1.58;;;33.00;34.00;;;;;;4358105;32;20063;-39
2021/06/11 12:51:52;;;;;;;5.43;1.85;;;32.90;33.20;;;;;;4355981;32;20067;-39
2021/06/11 12:54:19;;;;;;;1.62;0.82;;;32.90;32.50;;;;;;4355894;32;20078;-39
2021/06/11 12:56:46;;;;;;;5.35;1.08;;;32.80;32.40;;;;;;4356110;32;20552;-38
2021/06/11 12:59:12;;;;;;;1.52;0.73;;;32.70;32.70;;;;;;4355434;32;20075;-39